Time;durP1;ratioP1;P1;durP2;ratioP2;P2;SDS_P1;SDS_P2;PMS_P1;PMS_P2;Temp;Humidity;BMP_temperature;BMP_pressure;BME280_temperature;BME280_humidity;BME280_pressure;Samples;Min_cycle;Max_cycle;Signal;HPM_P1;HPM_P2
2021/06/06 00:00:47;;;;;;;18.58;11.77;;;;;;;15.57;72.60;102268.41;5054856;28;20037;-49
2021/06/06 00:03:23;;;;;;;17.58;10.85;;;;;;;15.56;72.78;102266.72;5054543;28;20056;-52
2021/06/06 00:05:54;;;;;;;16.23;11.88;;;;;;;15.57;72.94;102265.66;5053710;28;20120;-54
2021/06/06 00:08:23;;;;;;;19.58;12.52;;;;;;;15.59;72.51;102266.22;5055179;28;20049;-51
2021/06/06 00:10:55;;;;;;;18.17;12.63;;;;;;;15.59;72.50;102260.72;5054855;28;20438;-47
2021/06/06 00:13:24;;;;;;;18.08;12.27;;;;;;;15.58;72.45;102263.72;5054886;28;20057;-50
2021/06/06 00:15:52;;;;;;;21.30;12.45;;;;;;;15.58;72.63;102271.97;5055008;28;20063;-51
2021/06/06 00:18:20;;;;;;;16.42;12.40;;;;;;;15.58;72.68;102272.78;5054305;28;20033;-51
2021/06/06 00:20:47;;;;;;;19.90;12.10;;;;;;;15.55;72.52;102268.66;5054479;28;20454;-49
2021/06/06 00:23:15;;;;;;;19.02;12.25;;;;;;;15.53;72.93;102268.09;5054915;28;20041;-48
2021/06/06 00:25:43;;;;;;;18.70;13.32;;;;;;;15.55;72.71;102273.34;5054885;28;20053;-51
2021/06/06 00:28:11;;;;;;;19.63;12.50;;;;;;;15.54;73.08;102271.69;5054737;28;20095;-49
2021/06/06 00:30:39;;;;;;;19.63;12.35;;;;;;;15.54;72.81;102274.44;5054861;28;20037;-50
2021/06/06 00:33:07;;;;;;;20.67;12.55;;;;;;;15.55;73.08;102267.84;5052821;28;20423;-49
2021/06/06 00:35:34;;;;;;;15.00;10.70;;;;;;;15.59;72.92;102268.97;5054539;28;20089;-48
2021/06/06 00:38:03;;;;;;;17.73;12.25;;;;;;;15.62;72.90;102271.19;5053407;28;20036;-49
2021/06/06 00:40:36;;;;;;;20.75;12.48;;;;;;;15.63;72.90;102269.25;5053175;28;20041;-50
2021/06/06 00:43:07;;;;;;;19.42;13.13;;;;;;;15.61;73.03;102272.28;5053189;28;20492;-51
2021/06/06 00:45:41;;;;;;;20.47;13.97;;;;;;;15.57;72.61;102273.91;5053530;28;20095;-51
2021/06/06 00:48:10;;;;;;;19.80;12.98;;;;;;;15.48;73.22;102272.75;5053581;28;20128;-49
2021/06/06 00:50:44;;;;;;;20.17;12.32;;;;;;;15.46;73.87;102272.19;5053701;28;20041;-54
2021/06/06 00:53:26;;;;;;;20.67;13.00;;;;;;;15.45;73.63;102278.78;5054901;28;20316;-55
2021/06/06 00:55:55;;;;;;;21.58;14.43;;;;;;;15.34;73.61;102281.47;5055288;28;20080;-53
2021/06/06 00:58:24;;;;;;;21.67;14.48;;;;;;;15.27;73.83;102277.25;5056244;28;20049;-53
2021/06/06 01:00:53;;;;;;;24.48;13.75;;;;;;;15.22;74.15;102275.31;5056661;28;20076;-50
2021/06/06 01:03:25;;;;;;;24.88;14.52;;;;;;;15.23;74.18;102274.22;5036144;28;20087;-50
2021/06/06 01:06:01;;;;;;;;;;;;;;;15.21;74.15;102276.41;5054538;28;20053;-50
2021/06/06 01:08:33;;;;;;;22.55;14.00;;;;;;;15.18;73.98;102271.47;5052245;28;19921;-50
2021/06/06 01:11:20;;;;;;;21.77;13.77;;;;;;;15.13;74.31;102274.16;5053217;28;20084;-51
2021/06/06 01:13:55;;;;;;;24.73;14.80;;;;;;;15.11;74.49;102277.16;5054076;28;20099;-51
2021/06/06 01:16:34;;;;;;;25.38;15.70;;;;;;;15.08;74.60;102276.84;5068934;28;20518;-50
2021/06/06 01:19:13;;;;;;;23.92;15.60;;;;;;;15.10;74.84;102280.16;5052483;28;20557;-49
2021/06/06 01:22:07;;;;;;;25.08;16.05;;;;;;;15.13;74.64;102279.66;5036212;28;20048;-49
2021/06/06 01:24:40;;;;;;;26.50;15.48;;;;;;;15.17;74.27;102279.94;5052312;28;20041;-50
2021/06/06 01:27:15;;;;;;;23.10;14.57;;;;;;;15.19;74.48;102275.84;5052225;28;20045;-52
2021/06/06 01:30:00;;;;;;;20.63;13.80;;;;;;;15.20;74.11;102269.28;5052278;28;20048;-49
2021/06/06 01:32:39;;;;;;;22.83;14.95;;;;;;;15.20;74.29;102272.03;5048964;28;20103;-49
2021/06/06 01:35:29;;;;;;;21.05;14.63;;;;;;;15.16;74.28;102270.06;5041299;28;20064;-56
2021/06/06 01:38:06;;;;;;;23.17;13.77;;;;;;;15.14;74.45;102275.81;5036705;28;20037;-48
2021/06/06 01:40:36;;;;;;;26.40;15.40;;;;;;;15.11;74.73;102268.09;5047195;28;20052;-47
2021/06/06 01:43:09;;;;;;;24.05;14.75;;;;;;;15.12;74.80;102264.25;5068770;28;20048;-50
2021/06/06 01:45:41;;;;;;;23.30;14.20;;;;;;;15.12;74.88;102262.34;5051398;28;20053;-49
2021/06/06 01:48:11;;;;;;;23.70;14.73;;;;;;;15.10;74.87;102270.03;5068135;28;20567;-49
2021/06/06 01:50:54;;;;;;;23.27;14.00;;;;;;;15.11;74.88;102270.84;5067811;28;20060;-51
2021/06/06 01:53:24;;;;;;;21.42;14.50;;;;;;;15.09;74.73;102273.84;5052098;28;20040;-51
2021/06/06 01:55:57;;;;;;;25.80;14.93;;;;;;;15.07;74.88;102264.22;5067899;28;20064;-49
2021/06/06 01:58:27;;;;;;;22.63;13.35;;;;;;;15.09;74.75;102262.88;5051845;28;20049;-46
2021/06/06 02:01:09;;;;;;;24.88;14.93;;;;;;;15.11;74.79;102268.09;5050580;28;20518;-51
2021/06/06 02:03:41;;;;;;;24.73;14.32;;;;;;;15.16;74.74;102262.66;5052751;28;20492;-51
2021/06/06 02:06:26;;;;;;;22.17;14.05;;;;;;;15.21;74.70;102267.34;5066449;28;20076;-49
2021/06/06 02:08:57;;;;;;;20.70;13.40;;;;;;;15.23;74.53;102273.41;5053020;28;20065;-51
2021/06/06 02:11:45;;;;;;;25.90;14.63;;;;;;;15.23;74.28;102268.75;5051695;28;20140;-49
2021/06/06 02:14:21;;;;;;;23.67;15.38;;;;;;;15.19;74.97;102267.59;5067473;28;20076;-52
2021/06/06 02:16:58;;;;;;;24.42;16.02;;;;;;;15.16;75.38;102265.41;5052532;28;20045;-50
2021/06/06 02:19:38;;;;;;;22.33;14.70;;;;;;;15.12;75.17;102258.78;5051299;28;20056;-50
2021/06/06 02:22:16;;;;;;;22.98;15.45;;;;;;;15.11;75.42;102259.88;5052302;28;20041;-47
2021/06/06 02:24:44;;;;;;;27.38;15.32;;;;;;;15.10;75.46;102272.78;5050640;28;20131;-49
2021/06/06 02:27:15;;;;;;;24.10;14.32;;;;;;;15.08;75.61;102260.38;5034817;28;20044;-50
2021/06/06 02:30:07;;;;;;;24.77;16.13;;;;;;;15.05;76.01;102271.88;5052160;28;20052;-48
2021/06/06 02:32:47;;;;;;;24.02;15.32;;;;;;;15.02;75.79;102261.44;5051327;28;20151;-49
2021/06/06 02:35:33;;;;;;;25.13;15.27;;;;;;;15.04;75.86;102267.50;5051374;28;20057;-50
2021/06/06 02:38:31;;;;;;;21.95;15.10;;;;;;;15.05;75.92;102266.41;5051430;28;20045;-49
2021/06/06 02:41:04;;;;;;;26.80;16.30;;;;;;;15.03;75.46;102263.09;5043706;28;20781;-50
2021/06/06 02:43:42;;;;;;;;;;;;;;;14.98;75.56;102261.13;5051231;28;20094;-49
2021/06/06 02:46:10;;;;;;;23.55;16.70;;;;;;;14.94;75.15;102265.50;5050980;28;19928;-48
2021/06/06 02:48:45;;;;;;;23.88;17.08;;;;;;;14.90;75.20;102267.94;5052033;28;20036;-50
2021/06/06 02:51:21;;;;;;;27.58;17.40;;;;;;;14.90;75.18;102270.69;5050620;28;20500;-50
2021/06/06 02:53:57;;;;;;;23.33;15.82;;;;;;;14.93;75.03;102263.84;5067387;28;20049;-52
2021/06/06 02:56:32;;;;;;;27.15;16.88;;;;;;;14.88;74.76;102272.03;5066169;28;20064;-50
2021/06/06 02:59:11;;;;;;;;;;;;;;;14.78;74.78;102261.78;5050936;28;20201;-51
2021/06/06 03:01:50;;;;;;;25.83;17.17;;;;;;;14.74;75.07;102265.31;5050601;28;20299;-49
2021/06/06 03:04:25;;;;;;;20.65;15.23;;;;;;;14.73;74.80;102264.50;5050445;28;20041;-45
2021/06/06 03:07:00;;;;;;;24.73;16.67;;;;;;;14.69;74.88;102261.44;5051797;28;20048;-50
2021/06/06 03:09:29;;;;;;;25.55;16.85;;;;;;;14.66;74.97;102261.13;5052304;28;20084;-52
2021/06/06 03:12:03;;;;;;;22.63;15.95;;;;;;;14.64;75.06;102266.06;5051365;28;20045;-49
2021/06/06 03:14:37;;;;;;;21.00;15.27;;;;;;;14.64;75.34;102255.09;5054969;28;20114;-50
2021/06/06 03:17:32;;;;;;;20.15;15.20;;;;;;;14.65;75.05;102263.06;5054925;28;20494;-50
2021/06/06 03:20:16;;;;;;;22.38;15.05;;;;;;;14.67;75.18;102265.53;5055657;28;20045;-48
2021/06/06 03:22:47;;;;;;;22.65;15.30;;;;;;;14.64;75.04;102255.91;5054559;28;20060;-50
2021/06/06 03:25:44;;;;;;;23.63;15.63;;;;;;;14.67;75.03;102254.56;5070706;28;20098;-49
2021/06/06 03:28:20;;;;;;;22.92;16.65;;;;;;;14.63;75.04;102259.75;5070292;28;20037;-49
2021/06/06 03:30:54;;;;;;;24.23;15.93;;;;;;;14.55;75.28;102262.97;5054886;28;20506;-52
2021/06/06 03:33:53;;;;;;;21.48;15.98;;;;;;;14.51;75.69;102256.31;5069633;28;20060;-49
2021/06/06 03:36:44;;;;;;;21.55;15.57;;;;;;;14.56;75.63;102258.31;5054819;28;20049;-49
2021/06/06 03:39:27;;;;;;;23.30;17.73;;;;;;;14.55;75.72;102265.72;5069746;28;20037;-50
2021/06/06 03:42:01;;;;;;;25.85;17.23;;;;;;;14.53;75.50;102269.75;5055269;28;20044;-49
2021/06/06 03:44:30;;;;;;;27.58;18.17;;;;;;;14.56;75.74;102263.78;5054329;28;20140;-50
2021/06/06 03:46:58;;;;;;;21.48;15.50;;;;;;;14.58;75.83;102264.38;5054548;28;20048;-49
2021/06/06 03:49:27;;;;;;;26.58;17.00;;;;;;;14.62;75.62;102262.75;5055382;28;20534;-51
2021/06/06 03:51:55;;;;;;;26.15;17.73;;;;;;;14.63;75.61;102264.41;5055166;28;20075;-46
2021/06/06 03:54:24;;;;;;;26.85;18.10;;;;;;;14.63;75.47;102269.91;5054940;28;20102;-47
2021/06/06 03:56:52;;;;;;;32.08;21.65;;;;;;;14.60;75.51;102262.16;5055534;28;20064;-50
2021/06/06 03:59:24;;;;;;;30.10;20.67;;;;;;;14.52;76.04;102263.44;5055464;28;20045;-50
2021/06/06 04:01:53;;;;;;;31.95;21.25;;;;;;;14.48;76.17;102263.13;5054569;28;20065;-46
2021/06/06 04:04:23;;;;;;;33.40;22.75;;;;;;;14.39;76.51;102259.19;5055307;28;20522;-53
2021/06/06 04:06:52;;;;;;;27.52;19.10;;;;;;;14.36;77.03;102261.63;5054013;28;20499;-45
2021/06/06 04:09:20;;;;;;;28.98;20.33;;;;;;;14.40;76.61;102265.50;5054744;28;20037;-46
2021/06/06 04:11:48;;;;;;;28.38;19.95;;;;;;;14.42;76.81;102264.16;5053647;28;20416;-46
2021/06/06 04:14:18;;;;;;;31.45;20.17;;;;;;;14.40;76.88;102269.06;5053902;28;20041;-51
2021/06/06 04:16:53;;;;;;;30.02;19.63;;;;;;;14.39;76.82;102259.19;5053754;28;20080;-46
2021/06/06 04:19:22;;;;;;;28.20;18.88;;;;;;;14.37;77.11;102264.13;5054985;28;20053;-49
2021/06/06 04:21:51;;;;;;;26.83;18.30;;;;;;;14.36;77.22;102269.84;5054419;28;20408;-49
2021/06/06 04:24:20;;;;;;;26.42;16.90;;;;;;;14.37;77.25;102283.31;5051873;28;20037;-52
2021/06/06 04:26:51;;;;;;;28.65;19.83;;;;;;;14.39;77.21;102280.31;5054854;28;20045;-54
2021/06/06 04:29:21;;;;;;;26.25;18.35;;;;;;;14.35;77.25;102280.00;5053752;28;20053;-50
2021/06/06 04:31:56;;;;;;;25.92;18.25;;;;;;;14.36;77.25;102272.59;5053451;28;20052;-49
2021/06/06 04:34:24;;;;;;;24.20;17.77;;;;;;;14.37;77.36;102277.00;5053097;28;20049;-48
2021/06/06 04:36:53;;;;;;;28.67;17.40;;;;;;;14.31;77.52;102273.38;5053483;28;20508;-49
2021/06/06 04:39:24;;;;;;;25.70;17.67;;;;;;;14.29;77.49;102275.56;5052567;28;20044;-49
2021/06/06 04:41:53;;;;;;;24.60;16.42;;;;;;;14.30;77.36;102274.47;5049759;28;20072;-53
2021/06/06 04:44:26;;;;;;;26.17;16.52;;;;;;;14.34;77.36;102272.88;5053584;28;20056;-50
2021/06/06 04:46:56;;;;;;;21.35;15.20;;;;;;;14.35;77.37;102273.69;5052973;28;20045;-51
2021/06/06 04:49:25;;;;;;;21.60;15.98;;;;;;;14.38;77.28;102274.00;5053014;28;20103;-53
2021/06/06 04:51:53;;;;;;;25.98;17.13;;;;;;;14.33;77.23;102271.19;5041741;28;20049;-48
2021/06/06 04:54:30;;;;;;;23.98;16.27;;;;;;;14.37;77.57;102277.81;5050837;28;20068;-51
2021/06/06 04:56:59;;;;;;;22.60;15.82;;;;;;;14.45;77.49;102280.09;5052565;28;20415;-50
2021/06/06 04:59:35;;;;;;;24.38;16.23;;;;;;;14.49;76.85;102283.97;5053783;28;20045;-54
2021/06/06 05:02:05;;;;;;;23.63;16.95;;;;;;;14.43;76.34;102276.81;5042328;28;20049;-51
2021/06/06 05:04:33;;;;;;;21.27;14.52;;;;;;;14.38;76.41;102271.28;5032940;28;20118;-50
2021/06/06 05:07:05;;;;;;;20.60;14.10;;;;;;;14.38;76.48;102279.50;5053658;28;20087;-51
2021/06/06 05:09:32;;;;;;;20.98;14.80;;;;;;;14.35;76.76;102280.00;5052193;28;20073;-50
2021/06/06 05:12:07;;;;;;;24.92;16.20;;;;;;;14.33;76.71;102276.66;5052013;28;20407;-51
2021/06/06 05:14:37;;;;;;;25.20;15.88;;;;;;;14.35;77.06;102281.91;5052123;28;20045;-52
2021/06/06 05:17:06;;;;;;;25.88;14.98;;;;;;;14.37;76.71;102279.75;5051699;28;20045;-52
2021/06/06 05:19:43;;;;;;;26.50;16.08;;;;;;;14.36;76.95;102284.41;5051740;28;20521;-51
2021/06/06 05:22:16;;;;;;;26.80;16.60;;;;;;;14.39;76.93;102283.88;5052467;28;20045;-49
2021/06/06 05:24:46;;;;;;;28.50;17.85;;;;;;;14.40;76.68;102281.97;5051636;28;20045;-51
2021/06/06 05:27:16;;;;;;;27.27;17.67;;;;;;;14.35;76.73;102290.13;5052069;28;20411;-50
2021/06/06 05:29:43;;;;;;;25.50;17.48;;;;;;;14.36;76.79;102286.28;5053355;28;20491;-51
2021/06/06 05:32:11;;;;;;;25.65;17.60;;;;;;;14.36;76.81;102281.66;5046907;28;20044;-53
2021/06/06 05:34:39;;;;;;;28.45;18.75;;;;;;;14.37;76.57;102283.31;5053718;28;20499;-50
2021/06/06 05:37:09;;;;;;;28.85;18.23;;;;;;;14.39;76.61;102286.63;5052496;28;20060;-52
2021/06/06 05:39:36;;;;;;;26.95;19.10;;;;;;;14.39;76.34;102292.09;5053103;28;20052;-50
2021/06/06 05:42:04;;;;;;;26.98;18.17;;;;;;;14.34;76.61;102288.50;4701853;28;10000197;-49
2021/06/06 05:44:32;;;;;;;27.50;17.48;;;;;;;14.33;76.59;102279.41;5050540;28;20090;-51
2021/06/06 05:47:00;;;;;;;28.67;17.20;;;;;;;14.39;76.56;102285.81;5050814;28;20072;-49
2021/06/06 05:49:28;;;;;;;29.65;17.35;;;;;;;14.40;76.48;102288.28;5050211;28;20076;-51
2021/06/06 05:52:06;;;;;;;25.05;17.92;;;;;;;14.43;76.27;102298.75;5048355;28;20049;-50
2021/06/06 05:54:33;;;;;;;26.92;18.45;;;;;;;14.41;76.08;102289.94;5049548;28;20458;-50
2021/06/06 05:57:01;;;;;;;25.33;16.77;;;;;;;14.42;76.57;102299.00;5049699;28;20106;-52
2021/06/06 05:59:28;;;;;;;27.27;17.90;;;;;;;14.44;76.31;102292.16;5050222;28;20056;-52
2021/06/06 06:01:56;;;;;;;25.77;18.17;;;;;;;14.46;76.06;102302.88;5050075;28;20103;-50
2021/06/06 06:04:24;;;;;;;23.20;17.58;;;;;;;14.41;76.03;102295.44;5049534;28;20049;-55
2021/06/06 06:06:52;;;;;;;25.52;17.23;;;;;;;14.41;76.01;102300.91;5049303;28;20067;-53
2021/06/06 06:09:19;;;;;;;26.10;17.83;;;;;;;14.39;75.94;102296.78;5049723;28;20056;-49
2021/06/06 06:11:47;;;;;;;23.83;16.83;;;;;;;14.40;76.00;102295.69;5050123;28;20507;-53
2021/06/06 06:14:15;;;;;;;29.88;17.73;;;;;;;14.41;75.90;102298.16;5050048;28;20048;-49
2021/06/06 06:16:42;;;;;;;26.83;17.10;;;;;;;14.41;75.85;102300.91;5049547;28;20041;-52
2021/06/06 06:19:11;;;;;;;24.83;16.95;;;;;;;14.39;75.97;102297.59;5049052;28;20581;-52
2021/06/06 06:21:40;;;;;;;25.95;16.98;;;;;;;14.37;76.02;102299.75;5049113;28;20053;-49
2021/06/06 06:24:09;;;;;;;24.45;17.73;;;;;;;14.35;76.05;102298.38;5049959;28;20080;-52
2021/06/06 06:26:37;;;;;;;25.63;17.27;;;;;;;14.32;76.60;102302.44;5049667;28;20059;-53
2021/06/06 06:29:14;;;;;;;22.58;17.40;;;;;;;14.37;76.24;102302.50;5048313;28;20053;-50
2021/06/06 06:31:52;;;;;;;22.98;16.58;;;;;;;14.37;76.62;102297.00;5049064;28;20494;-48
2021/06/06 06:34:41;;;;;;;24.30;17.17;;;;;;;14.36;76.40;102300.84;5037164;28;20200;-50
2021/06/06 06:37:10;;;;;;;24.75;17.20;;;;;;;14.35;76.71;102296.44;5048597;28;20084;-51
2021/06/06 06:39:37;;;;;;;21.98;15.07;;;;;;;14.41;76.76;102297.34;5049924;28;20049;-52
2021/06/06 06:42:05;;;;;;;24.67;17.13;;;;;;;14.39;76.21;102297.59;5048948;28;20048;-50
2021/06/06 06:44:33;;;;;;;26.50;16.30;;;;;;;14.40;76.58;102299.25;5035833;28;20502;-53
2021/06/06 06:47:10;;;;;;;21.63;15.98;;;;;;;14.42;76.18;102299.81;5047792;28;20048;-51
2021/06/06 06:49:38;;;;;;;22.25;15.82;;;;;;;14.45;76.15;102290.25;5035132;28;20041;-50
2021/06/06 06:52:06;;;;;;;22.73;15.77;;;;;;;14.46;75.88;102294.66;5049446;28;20576;-51
2021/06/06 06:54:34;;;;;;;19.25;14.48;;;;;;;14.48;75.44;102285.09;5049247;28;20162;-51
2021/06/06 06:57:02;;;;;;;19.88;14.48;;;;;;;14.49;75.20;102286.72;5049239;28;20060;-49
2021/06/06 06:59:29;;;;;;;20.38;14.55;;;;;;;14.45;75.56;102282.84;5049657;28;20065;-49
2021/06/06 07:01:58;;;;;;;20.67;13.90;;;;;;;14.48;75.46;102296.06;5049705;28;20095;-48
2021/06/06 07:04:26;;;;;;;18.73;13.95;;;;;;;14.52;75.12;102298.28;5048810;28;20063;-52
2021/06/06 07:06:55;;;;;;;19.77;13.80;;;;;;;14.49;75.14;102303.19;5048795;28;20114;-54
2021/06/06 07:09:24;;;;;;;18.60;13.30;;;;;;;14.47;75.19;102301.78;5047758;28;20140;-49
2021/06/06 07:11:54;;;;;;;18.40;11.88;;;;;;;14.51;75.21;102305.69;5049089;28;20049;-51
2021/06/06 07:14:22;;;;;;;20.10;13.88;;;;;;;14.56;75.52;102304.94;5048869;28;20474;-50
2021/06/06 07:16:50;;;;;;;17.50;12.32;;;;;;;14.61;75.22;102310.47;4700060;28;10000433;-50
2021/06/06 07:19:18;;;;;;;16.42;12.85;;;;;;;14.62;74.23;102314.84;5048315;28;20116;-51
2021/06/06 07:21:45;;;;;;;17.98;12.70;;;;;;;14.59;73.99;102315.38;5048978;28;20495;-51
2021/06/06 07:24:13;;;;;;;18.00;13.10;;;;;;;14.55;74.23;102317.84;5049027;28;20059;-50
2021/06/06 07:26:44;;;;;;;17.75;14.07;;;;;;;14.51;74.28;102322.13;5048727;28;20664;-51
2021/06/06 07:29:14;;;;;;;16.38;12.40;;;;;;;14.51;74.55;102315.81;5049190;28;20056;-52
2021/06/06 07:31:43;;;;;;;18.08;13.10;;;;;;;14.56;74.68;102313.16;5047966;28;20052;-50
2021/06/06 07:34:14;;;;;;;16.75;11.98;;;;;;;14.60;74.48;102312.38;5050041;28;20114;-47
2021/06/06 07:36:43;;;;;;;16.08;12.25;;;;;;;14.60;74.44;102315.13;5051274;28;20487;-50
2021/06/06 07:39:11;;;;;;;19.20;13.95;;;;;;;14.62;74.42;102317.59;5050891;28;20049;-50
2021/06/06 07:41:39;;;;;;;18.98;12.98;;;;;;;14.59;74.47;102301.66;5051258;28;20503;-53
2021/06/06 07:44:07;;;;;;;18.08;12.73;;;;;;;14.64;74.43;102304.47;5051004;28;20041;-49
2021/06/06 07:46:35;;;;;;;18.20;13.68;;;;;;;14.67;74.32;102306.69;5050832;28;20052;-48
2021/06/06 07:49:04;;;;;;;16.55;12.43;;;;;;;14.69;74.41;102307.25;5050612;28;20403;-52
2021/06/06 07:51:32;;;;;;;18.48;13.75;;;;;;;14.75;74.19;102306.22;5050727;28;20533;-49
2021/06/06 07:54:00;;;;;;;17.65;12.90;;;;;;;14.82;74.09;102303.28;5050856;28;20037;-50
2021/06/06 07:56:28;;;;;;;17.35;13.55;;;;;;;14.87;73.85;102312.38;5051025;28;20057;-51
2021/06/06 07:58:56;;;;;;;17.35;13.77;;;;;;;14.88;73.73;102316.75;5052549;28;20099;-50
2021/06/06 08:01:23;;;;;;;17.48;13.38;;;;;;;14.90;73.51;102303.59;5054218;28;20084;-50
2021/06/06 08:03:52;;;;;;;17.95;14.32;;;;;;;14.96;74.00;102309.13;5055511;28;20116;-51
2021/06/06 08:06:20;;;;;;;18.90;15.07;;;;;;;15.01;73.77;102320.16;5058466;28;20044;-52
2021/06/06 08:08:52;;;;;;;18.60;15.50;;;;;;;14.94;73.58;102308.59;5060182;28;20112;-53
2021/06/06 08:11:20;;;;;;;18.08;14.25;;;;;;;14.94;73.42;102314.09;5061532;28;20546;-55
2021/06/06 08:13:50;;;;;;;20.15;15.15;;;;;;;15.01;73.63;102314.66;5060855;28;20111;-56
2021/06/06 08:16:19;;;;;;;21.42;15.73;;;;;;;15.06;73.72;102312.00;5054385;28;20036;-52
2021/06/06 08:18:48;;;;;;;19.38;15.80;;;;;;;15.14;73.67;102319.75;5054571;28;20053;-49
2021/06/06 08:21:18;;;;;;;23.13;15.88;;;;;;;15.18;73.56;102322.81;5053821;28;20103;-50
2021/06/06 08:23:46;;;;;;;21.38;15.65;;;;;;;15.21;73.44;102325.00;5054208;28;20167;-47
2021/06/06 08:26:17;;;;;;;20.42;16.08;;;;;;;15.23;73.05;102320.91;5054292;28;20037;-48
2021/06/06 08:28:46;;;;;;;20.90;16.45;;;;;;;15.26;73.54;102325.06;5054122;28;20053;-52
2021/06/06 08:31:17;;;;;;;21.02;16.00;;;;;;;15.29;73.42;102325.34;5053709;28;20045;-49
2021/06/06 08:33:46;;;;;;;21.02;17.45;;;;;;;15.34;73.01;102330.03;5053507;28;20045;-47
2021/06/06 08:36:45;;;;;;;20.33;15.85;;;;;;;15.38;72.72;102324.88;5053677;28;20037;-52
2021/06/06 08:39:22;;;;;;;21.45;16.30;;;;;;;15.38;72.36;102324.88;5049080;28;20041;-50
2021/06/06 08:42:18;;;;;;;23.52;17.38;;;;;;;15.42;72.15;102326.00;5041760;28;20050;-50
2021/06/06 08:45:08;;;;;;;22.73;17.30;;;;;;;15.39;72.46;102321.84;5041833;28;20471;-49
2021/06/06 08:47:37;;;;;;;22.30;17.33;;;;;;;15.42;72.23;102331.50;5069079;28;20048;-49
2021/06/06 08:50:13;;;;;;;23.17;18.65;;;;;;;15.45;72.66;102322.72;5068764;28;20081;-48
2021/06/06 08:52:43;;;;;;;23.55;20.13;;;;;;;15.47;71.89;102331.53;5068852;28;20496;-51
2021/06/06 08:55:28;;;;;;;22.63;17.15;;;;;;;15.43;72.08;102322.16;5053620;28;20037;-50
2021/06/06 08:58:25;;;;;;;23.45;17.67;;;;;;;15.49;71.95;102327.44;5053272;28;20426;-52
2021/06/06 09:01:24;;;;;;;24.52;19.40;;;;;;;15.54;72.52;102329.38;5052715;28;20067;-49
2021/06/06 09:03:56;;;;;;;24.80;18.65;;;;;;;15.54;72.02;102329.38;5049712;28;20057;-53
2021/06/06 09:06:47;;;;;;;25.75;19.30;;;;;;;15.53;71.79;102327.72;5053376;28;20068;-49
2021/06/06 09:09:36;;;;;;;25.83;18.45;;;;;;;15.54;72.27;102329.38;5068104;28;20044;-49
2021/06/06 09:12:13;;;;;;;25.10;17.75;;;;;;;15.60;71.83;102338.47;5041607;28;20076;-49
2021/06/06 09:14:41;;;;;;;25.92;17.92;;;;;;;15.63;72.33;102332.44;5052736;28;20404;-53
2021/06/06 09:17:14;;;;;;;24.90;19.42;;;;;;;15.64;71.94;102337.69;5053448;28;20033;-48
2021/06/06 09:19:44;;;;;;;24.52;18.15;;;;;;;15.72;72.28;102336.38;5053133;28;20048;-50
2021/06/06 09:22:13;;;;;;;21.98;18.20;;;;;;;15.72;71.53;102344.63;5053009;28;20061;-50
2021/06/06 09:24:47;;;;;;;23.73;18.25;;;;;;;15.75;71.60;102346.84;5068362;28;20596;-48
2021/06/06 09:27:24;;;;;;;22.83;16.17;;;;;;;15.83;71.71;102345.53;5052820;28;20041;-50
2021/06/06 09:30:05;;;;;;;24.23;18.57;;;;;;;15.88;70.59;102331.81;5052392;28;20068;-49
2021/06/06 09:32:33;;;;;;;25.35;18.73;;;;;;;15.93;70.77;102337.34;5053096;28;20095;-52
2021/06/06 09:35:24;;;;;;;27.33;18.25;;;;;;;15.96;71.24;102336.78;5052848;28;20045;-50
2021/06/06 09:38:10;;;;;;;24.33;17.42;;;;;;;16.00;70.91;102340.66;5035398;28;20049;-53
2021/06/06 09:40:39;;;;;;;;;;;;;;;16.07;70.30;102344.00;5048911;28;20110;-52
2021/06/06 09:43:10;;;;;;;25.08;19.17;;;;;;;16.10;70.53;102337.97;5052586;28;19931;-54
2021/06/06 09:45:41;;;;;;;23.85;17.42;;;;;;;16.16;71.01;102331.41;5053068;28;20045;-53
2021/06/06 09:48:22;;;;;;;21.42;16.30;;;;;;;16.25;70.84;102322.63;5053360;28;20048;-53
2021/06/06 09:51:16;;;;;;;21.65;16.00;;;;;;;16.32;70.39;102323.19;5052369;28;20049;-54
2021/06/06 09:53:44;;;;;;;20.67;14.77;;;;;;;16.38;70.36;102333.13;5051414;28;20049;-56
2021/06/06 09:56:23;;;;;;;22.13;16.30;;;;;;;16.43;70.59;102341.41;5052471;28;20098;-57
2021/06/06 09:59:27;;;;;;;21.83;16.48;;;;;;;16.43;70.35;102335.91;5052001;28;20123;-54
2021/06/06 10:02:05;;;;;;;22.23;15.70;;;;;;;16.46;70.69;102345.53;4999467;28;20057;-50
2021/06/06 10:04:35;;;;;;;20.23;15.95;;;;;;;16.49;70.46;102348.56;4980110;28;20161;-52
2021/06/06 10:07:16;;;;;;;20.73;14.80;;;;;;;16.52;70.36;102349.94;5010237;28;20050;-52
2021/06/06 10:09:52;;;;;;;20.85;15.57;;;;;;;16.56;70.35;102345.56;4980387;28;20048;-53
2021/06/06 10:12:25;;;;;;;21.48;15.13;;;;;;;16.58;69.85;102348.88;5009692;28;20042;-50
2021/06/06 10:14:57;;;;;;;22.85;15.80;;;;;;;16.60;70.80;102352.19;5010478;28;20053;-52
2021/06/06 10:17:37;;;;;;;20.48;14.73;;;;;;;16.61;69.73;102351.88;5010631;28;20074;-53
2021/06/06 10:20:21;;;;;;;19.88;14.43;;;;;;;16.61;69.86;102343.63;4978021;28;20096;-53
2021/06/06 10:22:57;;;;;;;18.55;14.10;;;;;;;16.64;69.79;102350.50;5009718;28;20050;-49
2021/06/06 10:25:44;;;;;;;20.83;13.52;;;;;;;16.66;69.84;102336.50;4997263;28;20062;-49
2021/06/06 10:28:15;;;;;;;18.60;14.07;;;;;;;16.72;70.35;102340.91;4991230;28;20058;-50
2021/06/06 10:30:53;;;;;;;19.35;14.05;;;;;;;16.78;68.99;102339.81;4986417;28;20461;-49
2021/06/06 10:33:38;;;;;;;18.70;13.35;;;;;;;16.82;69.35;102339.03;4986479;28;20050;-51
2021/06/06 10:36:06;;;;;;;15.38;11.43;;;;;;;16.88;67.91;102339.84;5010426;28;20077;-49
2021/06/06 10:38:38;;;;;;;14.30;10.45;;;;;;;16.89;67.69;102337.94;5043099;28;20523;-52
2021/06/06 10:41:15;;;;;;;14.80;9.80;;;;;;;16.90;66.59;102325.81;5051487;28;20441;-50
2021/06/06 10:43:56;;;;;;;14.18;10.02;;;;;;;16.90;66.88;102323.88;5052215;28;20495;-52
2021/06/06 10:46:34;;;;;;;15.85;10.18;;;;;;;16.90;67.18;102323.88;5050712;28;20049;-51
2021/06/06 10:49:10;;;;;;;14.35;10.10;;;;;;;16.92;67.68;102326.38;5048477;28;20045;-51
2021/06/06 10:52:04;;;;;;;14.80;9.75;;;;;;;16.93;67.81;102328.03;5051904;28;20075;-49
2021/06/06 10:54:43;;;;;;;12.73;8.82;;;;;;;16.97;66.93;102332.72;5051903;28;20048;-50
2021/06/06 10:57:30;;;;;;;12.77;8.98;;;;;;;17.02;66.45;102327.19;5067011;28;20094;-51
2021/06/06 11:00:00;;;;;;;14.10;10.43;;;;;;;17.06;66.54;102334.94;5067169;28;20037;-49
2021/06/06 11:02:39;;;;;;;14.23;11.05;;;;;;;17.07;66.57;102334.63;5052237;28;20051;-50
2021/06/06 11:05:22;;;;;;;13.32;10.40;;;;;;;17.10;66.71;102338.78;5067015;28;20033;-49
2021/06/06 11:07:50;;;;;;;15.20;10.52;;;;;;;17.13;65.43;102328.03;5051533;28;20434;-50
2021/06/06 11:10:21;;;;;;;13.57;9.93;;;;;;;17.16;65.81;102323.91;5051282;28;20102;-50
2021/06/06 11:12:52;;;;;;;16.23;9.85;;;;;;;17.20;66.22;102319.50;5051690;28;20495;-53
2021/06/06 11:15:36;;;;;;;15.23;10.63;;;;;;;17.26;65.72;102315.63;5051631;28;20060;-51
2021/06/06 11:18:16;;;;;;;14.35;10.69;;;;;;;17.34;65.56;102322.50;4998856;28;10001682;-51
2021/06/06 11:20:52;;;;;;;14.90;10.52;;;;;;;17.34;64.92;102312.34;4701215;28;10001172;-50
2021/06/06 11:23:32;;;;;;;13.15;9.40;;;;;;;17.37;64.61;102311.78;5049651;28;20064;-49
2021/06/06 11:26:01;;;;;;;13.75;8.80;;;;;;;17.41;64.66;102307.38;5048933;28;20102;-50
2021/06/06 11:28:33;;;;;;;11.63;8.32;;;;;;;17.46;64.25;102310.13;5049575;28;20053;-51
2021/06/06 11:31:05;;;;;;;15.45;9.32;;;;;;;17.52;64.49;102299.91;5064291;28;20080;-50
2021/06/06 11:33:36;;;;;;;13.40;9.30;;;;;;;17.58;64.41;102300.69;5065758;28;20044;-50
2021/06/06 11:36:04;;;;;;;14.68;11.05;;;;;;;17.58;64.56;102308.97;5039648;28;20049;-50
2021/06/06 11:38:44;;;;;;;14.50;10.38;;;;;;;17.56;64.48;102309.28;5068316;28;20064;-52